Time;durP1;ratioP1;P1;durP2;ratioP2;P2;SDS_P1;SDS_P2;PMS_P1;PMS_P2;Temp;Humidity;BMP_temperature;BMP_pressure;BME280_temperature;BME280_humidity;BME280_pressure;Samples;Min_cycle;Max_cycle;Signal;HPM_P1;HPM_P2
2024/03/10 00:00:47;;;;;;;;;;;;;;;6.92;67.67;94744.84;4206365;28;19928;-71
2024/03/10 00:02:49;;;;;;;;;;;;;;;6.84;68.14;94754.31;4203883;28;19923;-67
2024/03/10 00:04:52;;;;;;;;;;;;;;;6.53;67.81;94754.38;4190173;28;20292;-70
2024/03/10 00:06:54;;;;;;;;;;;;;;;6.39;68.86;94760.78;4205638;28;19930;-70
2024/03/10 00:08:55;;;;;;;;;;;;;;;6.41;69.28;94758.03;4208861;28;19981;-71
2024/03/10 00:10:57;;;;;;;;;;;;;;;6.49;69.28;94755.59;4186655;28;19939;-70
2024/03/10 00:12:59;;;;;;;;;;;;;;;6.62;69.27;94760.56;4205570;28;19932;-69
2024/03/10 00:15:01;;;;;;;;;;;;;;;6.71;68.68;94759.75;4201820;28;19930;-68
2024/03/10 00:17:02;;;;;;;;;;;;;;;6.76;68.37;94757.59;4199147;28;19975;-68
2024/03/10 00:19:04;;;;;;;;;;;;;;;6.86;68.18;94748.03;4209216;28;19989;-68
2024/03/10 00:21:06;;;;;;;;;;;;;;;6.98;68.30;94746.91;4206418;28;19920;-69
2024/03/10 00:23:08;;;;;;;;;;;;;;;7.11;68.25;94743.25;4200569;28;19921;-69
2024/03/10 00:25:10;;;;;;;;;;;;;;;7.16;67.29;94743.63;4208066;28;20011;-70
2024/03/10 00:27:12;;;;;;;;;;;;;;;7.07;66.83;94740.06;4209610;28;19920;-71
2024/03/10 00:29:14;;;;;;;;;;;;;;;7.07;67.10;94739.25;4210434;28;19923;-68
2024/03/10 00:31:15;;;;;;;;;;;;;;;7.09;67.35;94737.34;4219811;28;20039;-70
2024/03/10 00:33:17;;;;;;;;;;;;;;;7.15;67.28;94742.81;4215550;28;19947;-67
2024/03/10 00:35:19;;;;;;;;;;;;;;;7.23;66.87;94736.09;4183078;28;20076;-69
2024/03/10 00:37:21;;;;;;;;;;;;;;;7.29;67.16;94730.34;4207907;28;20397;-70
2024/03/10 00:39:23;;;;;;;;;;;;;;;7.30;66.99;94729.38;4210564;28;19937;-68
2024/03/10 00:41:24;;;;;;;;;;;;;;;7.26;66.27;94725.41;4197545;28;19924;-69
2024/03/10 00:43:26;;;;;;;;;;;;;;;7.22;66.89;94726.66;4204014;28;19984;-69
2024/03/10 00:45:28;;;;;;;;;;;;;;;7.20;66.76;94729.38;4202667;28;20005;-69
2024/03/10 00:47:29;;;;;;;;;;;;;;;7.24;66.65;94728.16;4203971;28;20325;-69
2024/03/10 00:49:31;;;;;;;;;;;;;;;7.33;67.08;94723.88;4215729;28;19923;-69
2024/03/10 00:51:35;;;;;;;;;;;;;;;7.35;66.87;94720.19;4210775;28;20014;-69
2024/03/10 00:53:36;;;;;;;;;;;;;;;7.39;66.60;94718.94;4179811;28;19920;-67
2024/03/10 00:55:38;;;;;;;;;;;;;;;7.39;66.19;94713.72;4209516;28;19919;-69
2024/03/10 00:57:40;;;;;;;;;;;;;;;7.44;66.25;94710.69;4217894;28;20007;-70
2024/03/10 00:59:42;;;;;;;;;;;;;;;7.42;66.32;94702.22;4216459;28;20299;-69
2024/03/10 01:01:44;;;;;;;;;;;;;;;7.43;66.39;94693.44;4193125;28;20386;-70
2024/03/10 01:03:47;;;;;;;;;;;;;;;7.45;66.33;94701.13;4201011;28;19919;-69
2024/03/10 01:05:48;;;;;;;;;;;;;;;7.48;65.91;94703.44;4211954;28;19920;-70
2024/03/10 01:07:50;;;;;;;;;;;;;;;7.44;66.18;94708.09;4197099;28;19924;-68
2024/03/10 01:09:52;;;;;;;;;;;;;;;7.38;65.89;94711.28;4203684;28;19920;-69
2024/03/10 01:11:53;;;;;;;;;;;;;;;7.25;65.57;94713.31;4209393;28;19920;-70
2024/03/10 01:13:55;;;;;;;;;;;;;;;7.10;66.90;94710.34;4196950;28;20012;-69
2024/03/10 01:15:57;;;;;;;;;;;;;;;7.11;66.91;94706.75;4203530;28;19927;-69
2024/03/10 01:17:59;;;;;;;;;;;;;;;7.19;67.13;94699.09;4202173;28;20267;-71
2024/03/10 01:20:01;;;;;;;;;;;;;;;7.24;66.38;94693.47;4211937;28;20003;-69
2024/03/10 01:22:03;;;;;;;;;;;;;;;7.27;66.59;94690.56;4189423;28;19924;-68
2024/03/10 01:24:05;;;;;;;;;;;;;;;7.30;66.92;94693.72;4208726;28;19924;-70
2024/03/10 01:26:08;;;;;;;;;;;;;;;7.34;67.08;94699.50;4191256;28;19970;-70
2024/03/10 01:28:11;;;;;;;;;;;;;;;7.36;66.57;94690.56;4197238;28;19920;-71
2024/03/10 01:30:13;;;;;;;;;;;;;;;7.42;66.21;94693.56;4210038;28;20293;-71
2024/03/10 01:32:15;;;;;;;;;;;;;;;7.43;66.77;94690.81;4197549;28;20333;-72
2024/03/10 01:34:19;;;;;;;;;;;;;;;7.45;66.21;94696.72;4204766;28;19924;-71
2024/03/10 01:36:21;;;;;;;;;;;;;;;7.45;66.80;94695.91;4206785;28;20039;-68
2024/03/10 01:38:23;;;;;;;;;;;;;;;7.50;66.66;94691.09;4202094;28;19928;-70
2024/03/10 01:40:24;;;;;;;;;;;;;;;7.50;66.60;94686.69;4205819;28;19942;-70
2024/03/10 01:42:27;;;;;;;;;;;;;;;7.50;66.50;94688.47;4209197;28;19974;-68
2024/03/10 01:44:28;;;;;;;;;;;;;;;7.45;67.10;94685.47;4208766;28;20003;-70
2024/03/10 01:46:30;;;;;;;;;;;;;;;7.48;67.46;94685.19;4202571;28;20026;-69
2024/03/10 01:48:41;;;;;;;;;;;;;;;7.49;67.17;94685.06;4182126;28;19928;-68
2024/03/10 01:50:43;;;;;;;;;;;;;;;7.49;67.29;94684.25;4194287;28;19920;-71
2024/03/10 01:52:47;;;;;;;;;;;;;;;7.51;66.98;94690.13;4199234;28;20351;-67
2024/03/10 01:54:49;;;;;;;;;;;;;;;7.53;66.32;94683.81;4201645;28;19920;-68
2024/03/10 01:56:51;;;;;;;;;;;;;;;7.50;66.89;94691.09;4200512;28;19920;-69
2024/03/10 01:58:52;;;;;;;;;;;;;;;7.45;67.13;94694.13;4196315;28;19920;-69
2024/03/10 02:00:55;;;;;;;;;;;;;;;7.39;67.01;94697.28;4203755;28;20391;-69
2024/03/10 02:02:57;;;;;;;;;;;;;;;7.42;67.50;94697.00;4182276;28;19947;-69
2024/03/10 02:05:02;;;;;;;;;;;;;;;7.45;67.37;94688.91;4197682;28;19978;-70
2024/03/10 02:07:03;;;;;;;;;;;;;;;7.29;67.46;94699.91;4207072;28;20049;-69
2024/03/10 02:09:05;;;;;;;;;;;;;;;6.89;68.24;94703.47;4201686;28;20056;-69
2024/03/10 02:11:07;;;;;;;;;;;;;;;6.87;69.42;94689.75;4196071;28;19920;-69
2024/03/10 02:13:11;;;;;;;;;;;;;;;6.90;69.45;94692.09;4182862;28;19978;-69
2024/03/10 02:15:12;;;;;;;;;;;;;;;6.97;69.25;94682.78;4183323;28;19932;-68
2024/03/10 02:17:14;;;;;;;;;;;;;;;7.01;69.08;94680.69;4204490;28;19924;-70
2024/03/10 02:19:19;;;;;;;;;;;;;;;7.04;68.91;94672.63;4194861;28;19984;-68
2024/03/10 02:21:25;;;;;;;;;;;;;;;7.08;68.99;94662.78;4201201;28;19934;-69
2024/03/10 02:23:45;;;;;;;;;;;;;;;7.14;68.67;94667.41;4196889;28;19924;-70
2024/03/10 02:25:48;;;;;;;;;;;;;;;7.23;68.73;94661.38;4198589;28;20015;-70
2024/03/10 02:27:52;;;;;;;;;;;;;;;7.25;68.59;94653.41;4208629;28;19928;-67
2024/03/10 02:30:12;;;;;;;;;;;;;;;7.26;68.19;94653.28;4181758;28;20413;-70
2024/03/10 02:48:53;;;;;;;;;;;;;;;6.94;69.47;94677.00;4185196;28;19966;-70
2024/03/10 02:50:56;;;;;;;;;;;;;;;6.98;69.34;94678.38;4194337;28;20198;-70
2024/03/10 02:52:57;;;;;;;;;;;;;;;6.97;69.13;94677.56;4203427;28;20373;-70
2024/03/10 02:55:01;;;;;;;;;;;;;;;6.92;69.28;94671.94;4203289;28;19984;-70
2024/03/10 02:57:02;;;;;;;;;;;;;;;6.89;69.33;94672.22;4205461;28;19947;-71
2024/03/10 02:59:05;;;;;;;;;;;;;;;6.85;68.91;94667.44;4201899;28;19928;-70
2024/03/10 03:01:10;;;;;;;;;;;;;;;6.86;69.60;94666.47;4197891;28;20348;-69
2024/03/10 03:03:13;;;;;;;;;;;;;;;6.90;69.40;94666.03;4208309;28;19927;-70
2024/03/10 03:05:17;;;;;;;;;;;;;;;6.79;69.52;94655.78;4208958;28;20434;-70
2024/03/10 03:07:19;;;;;;;;;;;;;;;6.75;69.60;94660.44;4179696;28;19925;-71
2024/03/10 03:09:21;;;;;;;;;;;;;;;6.70;69.98;94649.59;4202446;28;19920;-69
2024/03/10 03:11:22;;;;;;;;;;;;;;;6.70;70.16;94641.78;4206351;28;20016;-71
2024/03/10 03:13:26;;;;;;;;;;;;;;;6.74;70.08;94650.16;4208517;28;19924;-70
2024/03/10 03:15:27;;;;;;;;;;;;;;;6.83;70.26;94649.34;4204923;28;19963;-71
2024/03/10 03:17:30;;;;;;;;;;;;;;;6.89;69.90;94653.19;4208196;28;20022;-68
2024/03/10 03:19:32;;;;;;;;;;;;;;;6.92;69.62;94653.69;4204916;28;20132;-70
2024/03/10 03:21:34;;;;;;;;;;;;;;;6.98;69.45;94660.16;4210967;28;20411;-71
2024/03/10 03:23:36;;;;;;;;;;;;;;;7.00;69.26;94658.25;4207155;28;20030;-70
2024/03/10 03:25:38;;;;;;;;;;;;;;;7.00;68.97;94654.81;4204030;28;20372;-69
2024/03/10 03:27:41;;;;;;;;;;;;;;;7.03;69.01;94651.94;4210586;28;20002;-70
2024/03/10 03:29:43;;;;;;;;;;;;;;;6.93;68.60;94660.56;4194987;28;20370;-73
2024/03/10 03:31:45;;;;;;;;;;;;;;;6.91;68.63;94657.28;4213174;28;19946;-70
2024/03/10 03:33:46;;;;;;;;;;;;;;;6.94;68.91;94656.19;4212560;28;19924;-71
2024/03/10 03:35:48;;;;;;;;;;;;;;;6.97;68.83;94645.50;4207371;28;20374;-70
2024/03/10 03:37:50;;;;;;;;;;;;;;;6.99;68.69;94651.41;4208586;28;19920;-69
2024/03/10 03:39:53;;;;;;;;;;;;;;;7.04;68.79;94648.38;4209746;28;19920;-71
2024/03/10 03:41:55;;;;;;;;;;;;;;;7.00;68.65;94654.81;4207873;28;20005;-70
2024/03/10 03:43:56;;;;;;;;;;;;;;;6.99;68.77;94664.44;4201848;28;19924;-70
2024/03/10 03:45:58;;;;;;;;;;;;;;;7.03;68.39;94654.53;4196842;28;19964;-69
2024/03/10 03:48:02;;;;;;;;;;;;;;;7.05;67.78;94660.44;4207589;28;20146;-71
2024/03/10 03:50:05;;;;;;;;;;;;;;;7.07;68.01;94661.94;4210675;28;19920;-69
2024/03/10 03:52:07;;;;;;;;;;;;;;;7.08;67.84;94654.94;4207283;28;19947;-70
2024/03/10 03:54:09;;;;;;;;;;;;;;;7.09;68.02;94659.19;4214310;28;19927;-69
2024/03/10 03:56:11;;;;;;;;;;;;;;;7.12;68.20;94661.50;4202354;28;19920;-70
2024/03/10 03:58:13;;;;;;;;;;;;;;;7.12;67.87;94654.53;4208726;28;20006;-69
2024/03/10 04:00:15;;;;;;;;;;;;;;;7.14;67.78;94657.81;4211251;28;19966;-68
2024/03/10 04:02:23;;;;;;;;;;;;;;;7.12;68.62;94666.72;4208232;28;20009;-70
2024/03/10 04:04:26;;;;;;;;;;;;;;;7.01;68.30;94653.84;4196643;28;20038;-70
2024/03/10 04:06:28;;;;;;;;;;;;;;;6.94;68.43;94656.19;4202959;28;19920;-68
2024/03/10 04:08:29;;;;;;;;;;;;;;;6.82;68.55;94658.13;4208003;28;20433;-70
2024/03/10 04:10:31;;;;;;;;;;;;;;;6.79;69.46;94660.97;4212178;28;19926;-70
2024/03/10 04:12:33;;;;;;;;;;;;;;;6.72;69.54;94658.09;4209749;28;19988;-71
2024/03/10 04:14:35;;;;;;;;;;;;;;;6.70;69.74;94654.81;4208519;28;20015;-70
2024/03/10 04:16:36;;;;;;;;;;;;;;;6.71;70.18;94659.06;4193432;28;19940;-69
2024/03/10 04:18:38;;;;;;;;;;;;;;;6.75;69.68;94667.41;4199548;28;19974;-68
2024/03/10 04:20:41;;;;;;;;;;;;;;;6.81;69.64;94671.25;4182019;28;19928;-70
2024/03/10 04:22:43;;;;;;;;;;;;;;;6.84;69.22;94676.19;4209546;28;19984;-69
2024/03/10 04:24:45;;;;;;;;;;;;;;;6.81;69.42;94679.88;4206211;28;19930;-70
2024/03/10 04:26:48;;;;;;;;;;;;;;;6.81;69.33;94685.09;4211153;28;19931;-71
2024/03/10 04:28:50;;;;;;;;;;;;;;;6.81;69.32;94679.88;4198615;28;19960;-69
2024/03/10 04:30:51;;;;;;;;;;;;;;;6.78;69.30;94676.75;4206314;28;19920;-70
2024/03/10 04:32:54;;;;;;;;;;;;;;;6.79;69.41;94670.56;4207701;28;19958;-69
2024/03/10 04:34:56;;;;;;;;;;;;;;;6.76;69.29;94675.09;4199586;28;19965;-69
2024/03/10 04:36:59;;;;;;;;;;;;;;;6.78;69.60;94676.75;4205196;28;19924;-70
2024/03/10 04:39:00;;;;;;;;;;;;;;;6.78;69.79;94677.56;4201734;28;19980;-68
2024/03/10 04:41:02;;;;;;;;;;;;;;;6.73;69.58;94682.34;4208343;28;19924;-69
2024/03/10 04:43:04;;;;;;;;;;;;;;;6.72;69.61;94681.53;4207541;28;19924;-69
2024/03/10 04:45:06;;;;;;;;;;;;;;;6.74;69.58;94684.00;4200390;28;19955;-70
2024/03/10 04:47:08;;;;;;;;;;;;;;;6.70;69.68;94680.03;4218785;28;20187;-68
2024/03/10 04:49:10;;;;;;;;;;;;;;;6.70;69.58;94690.44;4201137;28;19970;-68
2024/03/10 04:51:13;;;;;;;;;;;;;;;6.68;69.62;94687.16;4199338;28;19920;-68
2024/03/10 04:53:15;;;;;;;;;;;;;;;6.67;69.29;94691.53;4193481;28;19936;-71
2024/03/10 04:55:17;;;;;;;;;;;;;;;6.69;69.58;94686.19;4216727;28;19970;-71
2024/03/10 04:57:19;;;;;;;;;;;;;;;6.69;69.60;94688.78;4210052;28;19924;-70
2024/03/10 04:59:20;;;;;;;;;;;;;;;6.72;69.19;94685.91;4199203;28;20282;-71
2024/03/10 05:01:23;;;;;;;;;;;;;;;6.68;69.63;94682.75;4210301;28;20370;-71
2024/03/10 05:03:26;;;;;;;;;;;;;;;6.69;69.17;94688.78;4192942;28;19931;-69
2024/03/10 05:05:28;;;;;;;;;;;;;;;6.69;69.21;94686.19;4209111;28;19932;-70
2024/03/10 05:07:30;;;;;;;;;;;;;;;6.73;69.21;94695.38;4209002;28;20011;-70
2024/03/10 05:09:31;;;;;;;;;;;;;;;6.75;69.21;94702.09;4210650;28;20058;-71
2024/03/10 05:11:33;;;;;;;;;;;;;;;6.72;69.21;94704.16;4211453;28;20315;-70
2024/03/10 05:13:38;;;;;;;;;;;;;;;6.70;69.05;94708.66;4190682;28;19920;-69
2024/03/10 05:15:39;;;;;;;;;;;;;;;6.65;69.42;94706.47;4194838;28;20456;-72
2024/03/10 05:17:41;;;;;;;;;;;;;;;6.69;69.33;94710.44;4194476;28;19924;-69
2024/03/10 05:19:43;;;;;;;;;;;;;;;6.73;69.13;94713.59;4199344;28;19967;-71
2024/03/10 05:21:45;;;;;;;;;;;;;;;6.76;68.84;94706.34;4209145;28;19927;-71
2024/03/10 05:23:47;;;;;;;;;;;;;;;6.79;69.13;94720.88;4211078;28;19924;-72
2024/03/10 05:25:49;;;;;;;;;;;;;;;6.82;68.86;94710.19;4207794;28;19920;-70
2024/03/10 05:27:52;;;;;;;;;;;;;;;6.79;68.63;94720.88;4200915;28;19921;-71
2024/03/10 05:29:54;;;;;;;;;;;;;;;6.78;68.58;94718.41;4201311;28;19963;-71
2024/03/10 05:31:56;;;;;;;;;;;;;;;6.73;68.57;94726.59;4203601;28;20040;-71
2024/03/10 05:33:59;;;;;;;;;;;;;;;6.72;68.72;94723.19;4202310;28;20015;-70
2024/03/10 05:36:01;;;;;;;;;;;;;;;6.75;68.79;94716.88;4191153;28;19920;-69
2024/03/10 05:38:04;;;;;;;;;;;;;;;6.80;68.72;94701.69;4205268;28;19920;-70
2024/03/10 05:40:06;;;;;;;;;;;;;;;6.82;68.61;94704.13;4209090;28;19957;-69
2024/03/10 05:42:08;;;;;;;;;;;;;;;6.83;68.59;94706.63;4212630;28;20001;-69
2024/03/10 05:44:10;;;;;;;;;;;;;;;6.92;68.65;94705.78;4207572;28;20258;-71
2024/03/10 05:46:12;;;;;;;;;;;;;;;6.95;68.83;94708.13;4198308;28;20026;-71
2024/03/10 05:48:15;;;;;;;;;;;;;;;7.01;68.29;94704.16;4217533;28;19948;-72
2024/03/10 05:50:17;;;;;;;;;;;;;;;7.10;68.25;94711.16;4199783;28;20383;-71
2024/03/10 05:52:19;;;;;;;;;;;;;;;7.12;68.00;94716.22;4209461;28;19969;-70
2024/03/10 05:54:23;;;;;;;;;;;;;;;7.15;67.81;94721.97;4197361;28;20392;-70
2024/03/10 05:56:25;;;;;;;;;;;;;;;7.20;67.36;94715.53;4208123;28;19993;-70
2024/03/10 05:58:27;;;;;;;;;;;;;;;7.17;67.60;94729.66;4207945;28;20022;-68
2024/03/10 06:00:31;;;;;;;;;;;;;;;7.14;67.98;94733.38;4207922;28;19924;-70
2024/03/10 06:02:33;;;;;;;;;;;;;;;6.98;68.24;94733.09;4207052;28;20113;-71
2024/03/10 06:04:35;;;;;;;;;;;;;;;6.74;68.41;94739.50;4208622;28;19995;-72
2024/03/10 06:06:36;;;;;;;;;;;;;;;6.19;70.38;94735.66;4210367;28;20431;-71
2024/03/10 06:08:38;;;;;;;;;;;;;;;6.30;70.92;94735.53;4205494;28;19942;-70
2024/03/10 06:10:40;;;;;;;;;;;;;;;6.46;70.61;94733.28;4209197;28;20297;-70
2024/03/10 06:12:42;;;;;;;;;;;;;;;6.47;69.61;94740.13;4205663;28;19920;-70
2024/03/10 06:14:44;;;;;;;;;;;;;;;6.11;71.33;94744.94;4213630;28;20071;-69
2024/03/10 06:16:46;;;;;;;;;;;;;;;6.17;71.59;94742.75;4184905;28;19924;-72
2024/03/10 06:25:39;;;;;;;;;;;;;;;5.64;73.23;94749.72;4198040;28;19927;-71
2024/03/10 06:27:42;;;;;;;;;;;;;;;5.58;73.84;94745.03;4210297;28;20382;-72
2024/03/10 06:29:45;;;;;;;;;;;;;;;5.77;74.15;94753.91;4203135;28;19955;-71
2024/03/10 06:31:46;;;;;;;;;;;;;;;5.98;73.28;94752.16;4206571;28;19934;-70
2024/03/10 06:33:51;;;;;;;;;;;;;;;6.17;72.62;94758.38;4205142;28;20510;-73
2024/03/10 06:35:52;;;;;;;;;;;;;;;6.38;71.83;94755.72;4201596;28;19920;-71
2024/03/10 06:37:56;;;;;;;;;;;;;;;6.56;71.27;94749.75;4207309;28;19924;-72
2024/03/10 06:39:58;;;;;;;;;;;;;;;6.74;70.61;94759.50;4198253;28;19927;-70
2024/03/10 06:42:00;;;;;;;;;;;;;;;6.85;69.90;94758.56;4206371;28;20299;-71
2024/03/10 06:44:04;;;;;;;;;;;;;;;6.98;69.71;94748.72;4195881;28;19929;-70
2024/03/10 06:46:09;;;;;;;;;;;;;;;7.20;68.83;94742.41;4215690;28;20027;-70
2024/03/10 06:48:13;;;;;;;;;;;;;;;7.35;68.02;94741.03;4194773;28;19920;-70
2024/03/10 06:50:15;;;;;;;;;;;;;;;7.47;67.83;94748.72;4199500;28;19927;-69
2024/03/10 06:52:18;;;;;;;;;;;;;;;7.63;66.86;94756.78;4210857;28;20023;-70
2024/03/10 06:54:19;;;;;;;;;;;;;;;7.66;67.08;94756.50;4211405;28;19943;-69
2024/03/10 06:56:21;;;;;;;;;;;;;;;7.77;66.75;94756.34;4211856;28;19954;-72
2024/03/10 06:58:23;;;;;;;;;;;;;;;7.84;66.49;94754.00;4206104;28;20426;-72
2024/03/10 07:00:25;;;;;;;;;;;;;;;7.78;66.35;94760.59;4208660;28;19991;-70
2024/03/10 07:02:28;;;;;;;;;;;;;;;7.84;66.24;94754.00;4203870;28;19927;-71
2024/03/10 07:04:32;;;;;;;;;;;;;;;7.89;66.28;94753.56;4181774;28;19995;-71
2024/03/10 07:06:34;;;;;;;;;;;;;;;7.96;66.50;94763.31;4209504;28;19949;-71
2024/03/10 07:08:36;;;;;;;;;;;;;;;7.98;66.00;94769.22;4211470;28;19942;-70
2024/03/10 07:10:38;;;;;;;;;;;;;;;8.04;66.43;94769.59;4209427;28;19931;-71
2024/03/10 07:12:40;;;;;;;;;;;;;;;8.08;65.81;94769.16;4197965;28;20351;-71
2024/03/10 07:14:42;;;;;;;;;;;;;;;8.16;65.83;94776.31;4209246;28;20010;-72
2024/03/10 07:16:49;;;;;;;;;;;;;;;8.20;65.76;94775.88;4213558;28;19954;-70
2024/03/10 07:18:51;;;;;;;;;;;;;;;8.27;66.10;94775.31;4208576;28;19920;-71
2024/03/10 07:20:52;;;;;;;;;;;;;;;8.39;65.36;94782.00;4205257;28;20007;-71
2024/03/10 07:22:54;;;;;;;;;;;;;;;8.42;65.12;94771.28;4182925;28;19924;-71
2024/03/10 07:24:56;;;;;;;;;;;;;;;8.45;65.19;94763.16;4188004;28;19928;-70
2024/03/10 07:26:57;;;;;;;;;;;;;;;8.35;64.81;94764.97;4195383;28;19946;-71
2024/03/10 07:28:59;;;;;;;;;;;;;;;8.45;64.08;94768.38;4211312;28;19928;-71
2024/03/10 07:31:01;;;;;;;;;;;;;;;8.53;64.89;94771.09;4216179;28;20339;-70
2024/03/10 07:33:02;;;;;;;;;;;;;;;8.65;63.71;94768.28;4195627;28;19932;-72
2024/03/10 07:35:05;;;;;;;;;;;;;;;8.77;63.66;94772.34;4209050;28;19920;-71
2024/03/10 07:37:06;;;;;;;;;;;;;;;8.87;63.31;94775.72;4212311;28;20311;-69
2024/03/10 07:39:10;;;;;;;;;;;;;;;8.98;63.32;94767.69;4199041;28;19931;-71
2024/03/10 07:41:12;;;;;;;;;;;;;;;9.10;62.82;94757.00;4205515;28;19978;-71
2024/03/10 07:43:15;;;;;;;;;;;;;;;9.33;62.56;94758.22;4210025;28;19977;-71
2024/03/10 07:45:19;;;;;;;;;;;;;;;9.47;61.35;94763.91;4203795;28;19920;-72
2024/03/10 07:47:21;;;;;;;;;;;;;;;9.42;61.69;94759.94;4211879;28;19921;-70
2024/03/10 07:49:24;;;;;;;;;;;;;;;9.33;61.20;94763.44;4206927;28;19924;-73
2024/03/10 07:51:27;;;;;;;;;;;;;;;9.42;61.47;94759.94;4200703;28;20509;-70
2024/03/10 07:53:29;;;;;;;;;;;;;;;9.32;61.50;94759.19;4219678;28;20258;-68
2024/03/10 07:55:31;;;;;;;;;;;;;;;9.36;61.92;94759.72;4211844;28;20374;-68
2024/03/10 07:57:35;;;;;;;;;;;;;;;9.33;61.79;94752.16;4205654;28;19928;-71
2024/03/10 07:59:37;;;;;;;;;;;;;;;9.23;62.14;94758.31;4200104;28;19924;-72
2024/03/10 08:01:39;;;;;;;;;;;;;;;9.25;61.70;94752.94;4205103;28;19925;-71
2024/03/10 08:03:41;;;;;;;;;;;;;;;9.36;62.32;94749.28;4199003;28;20015;-70
2024/03/10 08:05:43;;;;;;;;;;;;;;;9.57;62.40;94746.31;4203379;28;19920;-72
2024/03/10 08:07:46;;;;;;;;;;;;;;;9.67;60.91;94749.66;4199348;28;19931;-70
2024/03/10 08:09:50;;;;;;;;;;;;;;;9.63;61.26;94745.72;4202263;28;19943;-73
2024/03/10 08:11:53;;;;;;;;;;;;;;;9.81;61.42;94737.84;4206552;28;19920;-71
2024/03/10 08:13:54;;;;;;;;;;;;;;;9.93;60.26;94741.81;4199714;28;19926;-71
2024/03/10 08:15:59;;;;;;;;;;;;;;;10.02;59.88;94743.53;4190087;28;20348;-73
2024/03/10 08:18:00;;;;;;;;;;;;;;;10.00;59.87;94740.25;4210112;28;20382;-72
2024/03/10 08:20:08;;;;;;;;;;;;;;;10.09;59.80;94735.88;4206968;28;19928;-71
2024/03/10 08:22:10;;;;;;;;;;;;;;;9.66;60.19;94732.34;4200891;28;20440;-71
2024/03/10 08:24:13;;;;;;;;;;;;;;;9.63;61.14;94737.88;4197836;28;20005;-70
2024/03/10 08:26:15;;;;;;;;;;;;;;;9.42;61.19;94735.56;4210711;28;19923;-72
2024/03/10 08:28:19;;;;;;;;;;;;;;;9.42;61.78;94725.09;4211142;28;20019;-71
2024/03/10 08:30:20;;;;;;;;;;;;;;;9.27;60.74;94730.06;4200928;28;20577;-72
2024/03/10 08:32:23;;;;;;;;;;;;;;;9.17;62.30;94727.53;4215803;28;19988;-73
2024/03/10 08:34:26;;;;;;;;;;;;;;;9.58;61.69;94724.44;4210549;28;19993;-70
2024/03/10 08:36:28;;;;;;;;;;;;;;;9.93;60.79;94728.75;4189397;28;19920;-70
2024/03/10 08:38:30;;;;;;;;;;;;;;;10.07;59.21;94719.53;4209776;28;19999;-70
2024/03/10 08:40:34;;;;;;;;;;;;;;;10.15;59.67;94723.97;4211221;28;19924;-69
2024/03/10 08:42:39;;;;;;;;;;;;;;;10.38;58.77;94721.66;4211881;28;19988;-69
2024/03/10 08:44:44;;;;;;;;;;;;;;;10.58;58.93;94723.06;4198668;28;19920;-72
2024/03/10 08:46:46;;;;;;;;;;;;;;;10.78;58.30;94734.09;4192185;28;19934;-71
2024/03/10 08:48:48;;;;;;;;;;;;;;;11.02;57.92;94728.09;4198382;28;19920;-70
2024/03/10 08:50:50;;;;;;;;;;;;;;;11.12;57.19;94722.72;4210498;28;19931;-70
2024/03/10 08:52:52;;;;;;;;;;;;;;;11.38;56.53;94713.84;4197075;28;20015;-70
2024/03/10 08:54:55;;;;;;;;;;;;;;;11.52;56.49;94710.59;4212741;28;19928;-71
2024/03/10 08:56:57;;;;;;;;;;;;;;;11.51;55.87;94714.19;4183246;28;19928;-71
2024/03/10 08:58:59;;;;;;;;;;;;;;;11.05;56.41;94721.69;4199284;28;19931;-72
2024/03/10 09:01:04;;;;;;;;;;;;;;;10.34;58.26;94712.47;4209419;28;19970;-72
2024/03/10 09:03:07;;;;;;;;;;;;;;;10.57;58.34;94712.72;4200578;28;19921;-73
2024/03/10 09:05:12;;;;;;;;;;;;;;;10.86;58.58;94709.69;4205337;28;20382;-72
2024/03/10 09:07:15;;;;;;;;;;;;;;;11.07;57.11;94706.63;4201011;28;20294;-72
2024/03/10 09:09:18;;;;;;;;;;;;;;;11.36;56.72;94706.16;4195715;28;20360;-72
2024/03/10 09:11:23;;;;;;;;;;;;;;;11.55;55.87;94698.94;4200627;28;19923;-71
2024/03/10 09:13:26;;;;;;;;;;;;;;;11.83;55.82;94695.00;4208727;28;19946;-72
2024/03/10 09:15:28;;;;;;;;;;;;;;;11.52;55.44;94697.47;4192395;28;19963;-71
2024/03/10 09:17:30;;;;;;;;;;;;;;;11.13;57.05;94699.91;4190527;28;19996;-71
2024/03/10 09:19:32;;;;;;;;;;;;;;;11.05;57.10;94695.47;4207268;28;20356;-72
2024/03/10 09:21:34;;;;;;;;;;;;;;;10.90;57.71;94699.72;4202285;28;20217;-71
2024/03/10 09:23:37;;;;;;;;;;;;;;;10.96;57.68;94694.66;4203584;28;19927;-70
2024/03/10 09:25:40;;;;;;;;;;;;;;;10.91;57.72;94696.94;4209810;28;20015;-71
2024/03/10 09:27:43;;;;;;;;;;;;;;;10.91;57.81;94696.94;4207869;28;19920;-71
2024/03/10 09:29:46;;;;;;;;;;;;;;;11.17;57.51;94690.75;4207729;28;19981;-73
2024/03/10 09:31:50;;;;;;;;;;;;;;;11.58;56.93;94694.19;4209793;28;20394;-72
2024/03/10 09:33:52;;;;;;;;;;;;;;;11.93;56.00;94683.50;4210264;28;20310;-71
2024/03/10 09:35:55;;;;;;;;;;;;;;;12.27;55.59;94678.81;4203130;28;19987;-72
2024/03/10 09:38:06;;;;;;;;;;;;;;;12.51;54.53;94677.06;4209724;28;19981;-71
2024/03/10 09:40:09;;;;;;;;;;;;;;;12.27;54.05;94672.75;4206642;28;19924;-73
2024/03/10 09:42:14;;;;;;;;;;;;;;;12.15;54.04;94663.59;4181125;28;19989;-70
2024/03/10 09:44:19;;;;;;;;;;;;;;;12.23;54.12;94669.63;4193495;28;20139;-70
2024/03/10 09:46:21;;;;;;;;;;;;;;;12.02;54.70;94669.38;4209688;28;19924;-73
2024/03/10 09:48:23;;;;;;;;;;;;;;;11.66;55.23;94661.88;4197579;28;20008;-72
2024/03/10 09:50:26;;;;;;;;;;;;;;;11.74;55.28;94653.16;4209695;28;19920;-71
2024/03/10 09:52:30;;;;;;;;;;;;;;;11.91;55.35;94654.78;4182853;28;19920;-70
2024/03/10 09:54:32;;;;;;;;;;;;;;;12.10;54.36;94648.34;4199428;28;19920;-75
2024/03/10 09:56:35;;;;;;;;;;;;;;;12.39;54.28;94650.38;4199240;28;19930;-72
2024/03/10 09:58:50;;;;;;;;;;;;;;;12.63;53.68;94643.34;4191631;28;20018;-71
2024/03/10 10:00:52;;;;;;;;;;;;;;;12.84;53.42;94635.66;4199271;28;19932;-72
2024/03/10 10:03:03;;;;;;;;;;;;;;;13.03;52.80;94633.56;4163632;28;19959;-73
2024/03/10 10:05:06;;;;;;;;;;;;;;;13.07;52.21;94632.22;4209781;28;20377;-71
2024/03/10 10:07:08;;;;;;;;;;;;;;;12.75;52.96;94628.00;4187991;28;20016;-71
2024/03/10 10:09:10;;;;;;;;;;;;;;;12.47;53.91;94628.47;4209651;28;20023;-72
2024/03/10 10:11:13;;;;;;;;;;;;;;;12.55;53.78;94631.06;4200810;28;19969;-72
2024/03/10 10:13:22;;;;;;;;;;;;;;;12.85;53.51;94629.41;4197100;28;19942;-72
2024/03/10 10:15:26;;;;;;;;;;;;;;;12.99;52.84;94617.31;4202009;28;19989;-70
2024/03/10 10:17:32;;;;;;;;;;;;;;;13.18;52.10;94623.91;4206343;28;19920;-70
2024/03/10 10:19:34;;;;;;;;;;;;;;;13.17;52.55;94624.09;4194722;28;19924;-72
2024/03/10 10:21:36;;;;;;;;;;;;;;;13.07;53.05;94616.44;4203612;28;19920;-71
2024/03/10 10:23:38;;;;;;;;;;;;;;;13.31;52.78;94618.06;4207151;28;19920;-71
2024/03/10 10:25:42;;;;;;;;;;;;;;;13.10;52.36;94613.47;4207188;28;20348;-70
2024/03/10 10:27:47;;;;;;;;;;;;;;;12.82;52.99;94613.16;4207766;28;19919;-71
2024/03/10 10:29:50;;;;;;;;;;;;;;;12.72;53.19;94608.13;4204598;28;20076;-73
2024/03/10 10:31:55;;;;;;;;;;;;;;;12.93;53.52;94609.28;4189594;28;20425;-71
2024/03/10 10:33:57;;;;;;;;;;;;;;;13.20;53.11;94607.94;4209400;28;19942;-73
2024/03/10 10:36:01;;;;;;;;;;;;;;;13.47;52.00;94603.97;4203587;28;19931;-71
2024/03/10 10:38:12;;;;;;;;;;;;;;;13.39;51.73;94610.09;4190474;28;20315;-71
2024/03/10 10:40:16;;;;;;;;;;;;;;;13.38;51.93;94603.22;4212186;28;19928;-70
2024/03/10 10:42:18;;;;;;;;;;;;;;;13.52;51.91;94593.72;4208047;28;19920;-71
2024/03/10 10:44:34;;;;;;;;;;;;;;;13.55;51.62;94603.91;4205806;28;19965;-72
2024/03/10 10:46:36;;;;;;;;;;;;;;;13.73;51.91;94598.28;4200224;28;20475;-72
2024/03/10 10:48:39;;;;;;;;;;;;;;;13.86;50.74;94593.19;4211184;28;19931;-70
2024/03/10 10:50:47;;;;;;;;;;;;;;;13.95;50.95;94591.28;4196761;28;20045;-69
2024/03/10 10:52:50;;;;;;;;;;;;;;;13.73;51.46;94588.56;4195434;28;20289;-71
2024/03/10 10:54:51;;;;;;;;;;;;;;;13.77;51.46;94586.38;4203209;28;20194;-71
2024/03/10 10:56:54;;;;;;;;;;;;;;;13.98;51.50;94575.13;4182035;28;20028;-71
2024/03/10 10:58:55;;;;;;;;;;;;;;;14.09;50.79;94572.03;4194754;28;19920;-71
2024/03/10 11:01:04;;;;;;;;;;;;;;;14.20;50.68;94583.09;4205851;28;20346;-71
2024/03/10 11:03:14;;;;;;;;;;;;;;;14.31;50.03;94572.88;4179568;28;19936;-69
2024/03/10 11:05:18;;;;;;;;;;;;;;;14.17;50.77;94575.53;4200116;28;19920;-71
2024/03/10 11:07:26;;;;;;;;;;;;;;;14.28;50.41;94573.28;4213709;28;19931;-72
2024/03/10 11:09:30;;;;;;;;;;;;;;;14.24;50.21;94572.00;4204453;28;19926;-71